Tucumcari Municipal Airport
KTCC : now visible

Airfield :











YOU CAN JOIN US ON...

 
LOGIN :

Register | Disclaimer

   EN    FR    IT 

 









Legend :    VFR   Marginal VFR   IFR   Intensive IFR   Very Intensive IFR
Visi :
Ceiling :
>= 8 km
>= 3000ft
5 to 8 km
1000 to 3000 ft
1500m to 5 km
500 to 1000 ft
800 to 1500m
200 to 500 ft
< 800m
< 200 ft
Symbols :   Thunderstorms  Fog  Heavy snow  Heavy precipitations  Wind > 20 kt






- Airport Elevation : 4065 ft


KTCC - Tucumcari Municipal

CURRENT METAR :
  • 110753Z AUTO 25007KT 7SM CLR 01/M01 A3024 RMK AO2 SLP234 T00111006

EXPIRED METARs :
  • 110653Z AUTO 24005KT 10SM CLR 02/M01 A3024 RMK AO2 SLP236 T00171011 401171050
  • 110553Z AUTO 21009KT 10SM CLR 03/M01 A3023 RMK AO2 SLP234 T00281011 10061 20006 53011

TAF KTCC
Valid from the 11 at 06:00 until the 12 at 06:00 UTC


110533Z 1106/1206 22008KT P6SM SKC
FM110700 26006KT P6SM FEW010 SCT250
FM111600 22010KT P6SM BKN250
FM111900 21018G26KT P6SM BKN250
FM120400 22014KT P6SM SCT250



MET'MAP, your aeronautical weather chart ! - Copyright ORBIFLY December 2007 - Disclaimer

ORBIFLY MET'MAP TEAM :

Programming & Development : Alexandra Zaïnal
Concept & original design : Baudouin d'Aumeries
Assistance for programming : Marc-Olivier Méhu
Technical & hardware support : Manuel Goepfert

Contact : metmap@orbifly.com




SOURCES & CREDITS :

   NOAA       Earth
Advisory